Time;durP1;ratioP1;P1;durP2;ratioP2;P2;SDS_P1;SDS_P2;PMS_P1;PMS_P2;Temp;Humidity;BMP_temperature;BMP_pressure;BME280_temperature;BME280_humidity;BME280_pressure;Samples;Min_cycle;Max_cycle;Signal;HPM_P1;HPM_P2
2020/02/19 00:01:18;;;;;;;7.3;3.2;;;;;;;0.9;73.16504;944.6313;;;;
2020/02/19 00:03:53;;;;;;;6.5;3.2;;;;;;;0.88;73.50586;944.5979;;;;
2020/02/19 00:06:20;;;;;;;8.7;3.2;;;;;;;0.95;73.30664;944.4836;;;;
2020/02/19 00:08:52;;;;;;;5.6;2.9;;;;;;;1.07;73.10352;944.5568;;;;
2020/02/19 00:11:18;;;;;;;6.2;3;;;;;;;1.26;72.41016;944.6038;;;;
2020/02/19 00:13:54;;;;;;;5.5;2.5;;;;;;;1.35;71.86719;944.5575;;;;
2020/02/19 00:16:42;;;;;;;6;2.7;;;;;;;1.5;71.47949;944.5283;;;;
2020/02/19 00:19:01;;;;;;;4.9;2.5;;;;;;;1.57;71.03125;944.5703;;;;
2020/02/19 00:21:29;;;;;;;5.7;2.3;;;;;;;1.36;71.54395;944.6635;;;;
2020/02/19 00:24:03;;;;;;;5.2;2.8;;;;;;;1.44;71.33496;944.6245;;;;
2020/02/19 00:26:40;;;;;;;6.4;2.8;;;;;;;1.4;71.60645;944.673;;;;
2020/02/19 00:29:04;;;;;;;5;2.4;;;;;;;1.46;71.94141;944.6994;;;;
2020/02/19 00:31:39;;;;;;;5.8;2.5;;;;;;;1.57;71.8252;944.7004;;;;
2020/02/19 00:34:21;;;;;;;5.3;2.8;;;;;;;1.62;70.94043;944.6424;;;;
2020/02/19 00:36:57;;;;;;;6.1;2.7;;;;;;;1.66;70.51172;944.6707;;;;
2020/02/19 00:39:29;;;;;;;5;2.6;;;;;;;1.66;70.52246;944.6917;;;;
2020/02/19 00:42:08;;;;;;;5.7;2.6;;;;;;;1.7;70.69629;944.5657;;;;
2020/02/19 00:44:36;;;;;;;6;2.9;;;;;;;1.72;70.45313;944.5595;;;;
2020/02/19 00:47:02;;;;;;;4.7;2.4;;;;;;;1.74;70.6709;944.56;;;;
2020/02/19 00:49:35;;;;;;;5;2.1;;;;;;;1.88;69.98828;944.5488;;;;
2020/02/19 00:52:01;;;;;;;4.6;2.2;;;;;;;1.86;70.11816;944.5136;;;;
2020/02/19 00:54:39;;;;;;;4.7;2.1;;;;;;;1.84;70.01563;944.5081;;;;
2020/02/19 00:57:07;;;;;;;4.8;1.8;;;;;;;1.71;70.33887;944.5361;;;;
2020/02/19 00:59:33;;;;;;;5.1;1.8;;;;;;;1.57;70.78613;944.4755;;;;
2020/02/19 01:04:36;;;;;;;4.4;1.8;;;;;;;1.58;71.08887;944.3329;;;;
2020/02/19 01:07:08;;;;;;;7.9;2.4;;;;;;;1.46;71.39355;944.351;;;;
2020/02/19 01:09:39;;;;;;;14.7;3;;;;;;;1.49;71.37695;944.3344;;;;
2020/02/19 01:12:13;;;;;;;7.8;2.4;;;;;;;1.57;71.28906;944.3522;;;;
2020/02/19 01:14:45;;;;;;;7.6;2.6;;;;;;;1.68;70.83691;944.2224;;;;
2020/02/19 01:17:13;;;;;;;4.8;1.9;;;;;;;1.81;69.83105;944.3354;;;;
2020/02/19 01:19:44;;;;;;;4.8;2.1;;;;;;;1.73;69.98535;944.2712;;;;
2020/02/19 01:22:14;;;;;;;3.7;2;;;;;;;1.71;70.1377;944.2033;;;;
2020/02/19 01:24:50;;;;;;;5.4;1.8;;;;;;;1.67;70.2207;944.1544;;;;
2020/02/19 01:27:16;;;;;;;5.3;1.9;;;;;;;1.66;70.33105;944.168;;;;
2020/02/19 01:29:41;;;;;;;5;1.8;;;;;;;1.39;71.22461;944.0786;;;;
2020/02/19 01:32:16;;;;;;;4.4;1.8;;;;;;;1.51;70.98926;944.0844;;;;
2020/02/19 01:35:17;;;;;;;3.2;1.6;;;;;;;1.56;70.98535;944.073;;;;
2020/02/19 01:37:38;;;;;;;4.2;1.6;;;;;;;1.6;70.62402;944.0081;;;;
2020/02/19 01:40:11;;;;;;;5.4;2.1;;;;;;;1.61;70.7373;944.0078;;;;
2020/02/19 01:42:41;;;;;;;6.5;2;;;;;;;1.7;70.8418;944.0093;;;;
2020/02/19 01:45:13;;;;;;;5.4;2;;;;;;;1.66;70.5;943.9736;;;;
2020/02/19 01:47:45;;;;;;;5.1;1.7;;;;;;;1.73;70.41992;943.9344;;;;
2020/02/19 01:50:17;;;;;;;4.7;2.2;;;;;;;1.68;70.68262;943.8795;;;;
2020/02/19 01:52:46;;;;;;;6.3;2.2;;;;;;;1.71;71.66016;943.873;;;;
2020/02/19 01:55:24;;;;;;;6.8;2;;;;;;;1.72;71.38184;943.8675;;;;
2020/02/19 01:58:17;;;;;;;5.1;2.3;;;;;;;1.85;70.63086;943.7181;;;;
2020/02/19 02:03:42;;;;;;;8.3;3.7;;;;;;;1.55;71.17383;943.7522;;;;
2020/02/19 02:06:04;;;;;;;7.2;2.7;;;;;;;1.39;71.70508;943.5726;;;;
2020/02/19 02:11:24;;;;;;;4.7;2.3;;;;;;;1.42;71.87793;943.6026;;;;
2020/02/19 02:14:17;;;;;;;7.1;2.5;;;;;;;1.31;72.46387;943.5936;;;;
2020/02/19 02:17:20;;;;;;;4.9;2.2;;;;;;;1.26;72.52148;943.5524;;;;
2020/02/19 02:19:27;;;;;;;4.1;1.9;;;;;;;1.29;72.20215;943.402;;;;
2020/02/19 02:22:01;;;;;;;5.8;2.3;;;;;;;1.2;72.52344;943.3772;;;;
2020/02/19 02:24:26;;;;;;;4.7;1.8;;;;;;;1.28;72.40332;943.3168;;;;
2020/02/19 02:26:50;;;;;;;5.1;1.9;;;;;;;1.41;72.25781;943.3167;;;;
2020/02/19 02:29:21;;;;;;;5.7;1.9;;;;;;;1.38;72.01855;943.2153;;;;
2020/02/19 02:31:47;;;;;;;4.5;2;;;;;;;1.28;72.41309;943.2255;;;;
2020/02/19 02:34:20;;;;;;;4.7;2;;;;;;;1.25;72.63184;943.2267;;;;
2020/02/19 02:36:43;;;;;;;3.9;2;;;;;;;1.23;72.71875;943.1394;;;;
2020/02/19 02:39:15;;;;;;;4.3;1.9;;;;;;;1.24;72.75391;943.1195;;;;
2020/02/19 02:41:50;;;;;;;6;2;;;;;;;1.06;73.57129;943.0648;;;;
2020/02/19 02:44:17;;;;;;;4.7;2.3;;;;;;;0.76;74.68945;943.0556;;;;
2020/02/19 02:47:15;;;;;;;4.3;2.1;;;;;;;0.67;75.15527;942.9883;;;;
2020/02/19 02:49:37;;;;;;;4.8;2.3;;;;;;;0.72;75.25195;942.935;;;;
2020/02/19 02:51:59;;;;;;;4.9;2.4;;;;;;;0.71;75.27441;942.9559;;;;
2020/02/19 02:54:33;;;;;;;4.6;2.1;;;;;;;0.86;74.86328;942.9067;;;;
2020/02/19 02:57:05;;;;;;;4.1;2.2;;;;;;;1;74.54395;942.8872;;;;
2020/02/19 02:59:50;;;;;;;7.4;2.3;;;;;;;0.88;75.18066;942.8686;;;;
2020/02/19 03:02:15;;;;;;;4.7;2.1;;;;;;;0.94;74.83496;942.8702;;;;
2020/02/19 03:05:00;;;;;;;5.1;2.2;;;;;;;0.93;74.82031;942.7503;;;;
2020/02/19 03:07:17;;;;;;;5.3;2.1;;;;;;;0.86;75.0752;942.7067;;;;
2020/02/19 03:10:21;;;;;;;4.9;2.1;;;;;;;0.74;75.79102;942.7714;;;;
2020/02/19 03:12:18;;;;;;;19.7;3.3;;;;;;;0.91;75.5;942.8031;;;;
2020/02/19 03:14:53;;;;;;;7.9;3.4;;;;;;;0.95;75.13574;942.6589;;;;
2020/02/19 03:17:26;;;;;;;7.2;3.1;;;;;;;0.92;75.16602;942.7534;;;;
2020/02/19 03:19:49;;;;;;;9.5;2.8;;;;;;;0.99;74.89648;942.6766;;;;
2020/02/19 03:22:19;;;;;;;7.3;2.4;;;;;;;1.12;74.07227;942.7017;;;;
2020/02/19 03:24:58;;;;;;;4.6;1.9;;;;;;;1.16;73.85645;942.7253;;;;
2020/02/19 03:27:17;;;;;;;5.7;2.8;;;;;;;1.4;72.95996;942.7381;;;;
2020/02/19 03:29:52;;;;;;;12.6;2.8;;;;;;;1.57;72.75391;942.7017;;;;
2020/02/19 03:34:48;;;;;;;5.3;2;;;;;;;1.34;72.96094;942.6791;;;;
2020/02/19 03:37:20;;;;;;;6;2.3;;;;;;;1.4;73.28418;942.6298;;;;
2020/02/19 03:39:50;;;;;;;3.5;1.9;;;;;;;1.39;72.94629;942.5173;;;;
2020/02/19 03:42:17;;;;;;;4.9;2.1;;;;;;;1.37;73.31152;942.5862;;;;
2020/02/19 03:44:49;;;;;;;3.5;1.9;;;;;;;1.37;73.42383;942.4592;;;;
2020/02/19 03:47:25;;;;;;;5.1;2.1;;;;;;;1.32;73.5498;942.504;;;;
2020/02/19 03:49:53;;;;;;;4.3;1.8;;;;;;;1.22;74.23438;942.3229;;;;
2020/02/19 03:52:28;;;;;;;4.8;1.9;;;;;;;1.29;73.77832;942.4291;;;;
2020/02/19 03:55:00;;;;;;;3.2;1.6;;;;;;;1.25;73.60449;942.3605;;;;
2020/02/19 03:57:23;;;;;;;4.3;1.6;;;;;;;1.16;73.43164;942.3392;;;;
2020/02/19 03:59:48;;;;;;;4.1;1.6;;;;;;;1.28;72.7373;942.3542;;;;
2020/02/19 04:02:50;;;;;;;3.9;1.5;;;;;;;1.47;72.2666;942.2996;;;;
2020/02/19 04:05:21;;;;;;;4.1;1.7;;;;;;;1.56;72.27148;942.3753;;;;
2020/02/19 04:07:46;;;;;;;10;3.5;;;;;;;1.65;71.96191;942.3333;;;;
2020/02/19 04:10:29;;;;;;;11.5;3.4;;;;;;;1.71;71.9375;942.3477;;;;
2020/02/19 04:13:31;;;;;;;4.1;1.9;;;;;;;1.7;71.91602;942.2054;;;;
2020/02/19 04:16:04;;;;;;;4.4;2.1;;;;;;;1.52;72.64355;942.3381;;;;
2020/02/19 04:18:39;;;;;;;5.9;2;;;;;;;1.29;73.4541;942.2622;;;;
2020/02/19 04:21:09;;;;;;;6.4;2.4;;;;;;;1.16;74.0127;942.1541;;;;
2020/02/19 04:23:35;;;;;;;10.1;3.3;;;;;;;1.34;73.59766;942.0531;;;;
2020/02/19 04:26:28;;;;;;;8.2;2.7;;;;;;;1.51;73.24707;941.9556;;;;
2020/02/19 04:28:58;;;;;;;7.7;2.1;;;;;;;1.58;72.48828;942.0455;;;;
2020/02/19 04:31:24;;;;;;;4;2;;;;;;;1.59;72.28711;941.8746;;;;
2020/02/19 04:34:01;;;;;;;4.5;1.8;;;;;;;1.47;71.94238;941.7974;;;;
2020/02/19 04:36:28;;;;;;;5.8;2.4;;;;;;;1.59;71.39258;941.8872;;;;
2020/02/19 04:38:58;;;;;;;4.6;1.8;;;;;;;1.59;71.4834;941.9603;;;;
2020/02/19 04:41:28;;;;;;;3.7;1.7;;;;;;;1.55;71.53125;941.9153;;;;
2020/02/19 04:43:53;;;;;;;5.2;2.2;;;;;;;1.45;72.45215;941.7352;;;;
2020/02/19 04:46:20;;;;;;;6.3;2.4;;;;;;;1.35;72.95215;941.7759;;;;
2020/02/19 04:48:48;;;;;;;5.3;2.8;;;;;;;1.15;73.93359;941.8346;;;;
2020/02/19 04:53:57;;;;;;;4.8;2.1;;;;;;;1.11;74.29395;941.639;;;;
2020/02/19 04:56:32;;;;;;;5.9;2.4;;;;;;;1.17;74.29395;941.7406;;;;
2020/02/19 04:59:02;;;;;;;5.8;2.3;;;;;;;1.21;73.87598;941.8;;;;
2020/02/19 05:01:34;;;;;;;4.7;2;;;;;;;1.4;72.73633;941.7703;;;;
2020/02/19 05:05:05;;;;;;;5.7;1.9;;;;;;;1.28;72.98438;941.7191;;;;
2020/02/19 05:06:40;;;;;;;5.5;2.9;;;;;;;1.16;74.72754;941.7623;;;;
2020/02/19 05:08:53;;;;;;;3.6;1.8;;;;;;;1.02;74.2334;941.6838;;;;
2020/02/19 05:11:19;;;;;;;5.1;2.2;;;;;;;1.06;74.77734;941.4731;;;;
2020/02/19 05:13:50;;;;;;;6.8;2;;;;;;;1.24;73.94727;941.5481;;;;
2020/02/19 05:16:13;;;;;;;6.3;1.8;;;;;;;1.17;73.37793;941.5728;;;;
2020/02/19 05:18:47;;;;;;;11.1;3.7;;;;;;;1.39;72.64453;941.4608;;;;
2020/02/19 05:21:16;;;;;;;8;2.3;;;;;;;1.5;71.45508;941.3337;;;;
2020/02/19 05:23:59;;;;;;;23;18.5;;;;;;;1.55;71.67676;941.355;;;;
2020/02/19 05:26:33;;;;;;;4.3;1.9;;;;;;;1.5;71.68066;941.2263;;;;
2020/02/19 05:29:19;;;;;;;5.1;1.9;;;;;;;1.45;71.88379;941.1047;;;;
2020/02/19 05:31:43;;;;;;;12.1;2.1;;;;;;;1.24;72.01465;941.1208;;;;
2020/02/19 05:34:13;;;;;;;5.8;2;;;;;;;1.17;71.88086;941.052;;;;
2020/02/19 05:36:38;;;;;;;8.4;1.9;;;;;;;1.2;71.13867;941.0447;;;;
2020/02/19 05:39:14;;;;;;;5.6;1.9;;;;;;;1.37;70.1709;940.9774;;;;
2020/02/19 05:41:42;;;;;;;4;1.4;;;;;;;1.52;68.49707;940.8914;;;;
2020/02/19 05:44:24;;;;;;;9.6;1.8;;;;;;;1.61;68.79199;940.8833;;;;
2020/02/19 05:46:55;;;;;;;5.6;2.6;;;;;;;1.78;67.71191;940.8567;;;;
2020/02/19 05:49:32;;;;;;;15.2;4.1;;;;;;;1.94;67.43457;940.7731;;;;
2020/02/19 05:52:05;;;;;;;24;13.4;;;;;;;1.6;69.19238;940.781;;;;
2020/02/19 05:54:32;;;;;;;14.2;7.7;;;;;;;1.51;69.96094;940.7961;;;;
2020/02/19 05:56:58;;;;;;;8.9;3.9;;;;;;;1.37;70.58496;940.775;;;;
2020/02/19 05:59:33;;;;;;;5.9;2.5;;;;;;;0.89;72.41504;940.8187;;;;
2020/02/19 06:02:27;;;;;;;4.8;2.5;;;;;;;0.74;73.36035;940.6479;;;;
2020/02/19 06:07:03;;;;;;;6;2.1;;;;;;;0.77;73.12988;940.687;;;;
2020/02/19 06:09:47;;;;;;;20.2;8.9;;;;;;;0.83;73.15039;940.7239;;;;
2020/02/19 06:11:59;;;;;;;10.2;5.4;;;;;;;0.97;73.58691;940.7408;;;;
2020/02/19 06:14:29;;;;;;;8.4;3.6;;;;;;;0.94;73.57324;940.6595;;;;
2020/02/19 06:17:03;;;;;;;12.4;3;;;;;;;0.92;72.74219;940.7689;;;;
2020/02/19 06:19:33;;;;;;;12.2;2.9;;;;;;;1.02;72.55957;940.5697;;;;
2020/02/19 06:22:06;;;;;;;9.9;3.2;;;;;;;1.35;71.78906;940.625;;;;
2020/02/19 06:24:33;;;;;;;5.4;3;;;;;;;1.23;72.02539;940.5605;;;;
2020/02/19 06:27:06;;;;;;;15.4;4.4;;;;;;;1.21;72.08789;940.4106;;;;
2020/02/19 06:32:32;;;;;;;12.7;4.4;;;;;;;1.56;71.5127;940.3605;;;;
2020/02/19 06:34:54;;;;;;;10;4.1;;;;;;;1.53;70.81445;940.4016;;;;
2020/02/19 06:37:28;;;;;;;9.7;4.1;;;;;;;1.44;70.9541;940.2708;;;;
2020/02/19 06:40:01;;;;;;;10.5;3.6;;;;;;;1.49;70.88574;940.3078;;;;
2020/02/19 06:42:22;;;;;;;13.2;3.8;;;;;;;1.51;70.2959;940.3386;;;;
2020/02/19 06:44:47;;;;;;;9.8;3.5;;;;;;;1.53;70.14258;940.3889;;;;
2020/02/19 06:47:41;;;;;;;11;2.9;;;;;;;1.74;69.4834;940.3956;;;;
2020/02/19 06:50:14;;;;;;;13.8;3.3;;;;;;;1.89;68.66895;940.3579;;;;
2020/02/19 06:53:07;;;;;;;12.8;3.1;;;;;;;2.04;67.9541;940.4081;;;;
2020/02/19 06:55:13;;;;;;;16.8;3.3;;;;;;;1.95;67.92773;940.4165;;;;
2020/02/19 06:57:40;;;;;;;12.6;3.5;;;;;;;2.1;67.16895;940.4416;;;;
2020/02/19 07:00:15;;;;;;;10.2;3.2;;;;;;;2.13;68.1582;940.4702;;;;
2020/02/19 07:02:35;;;;;;;16;4.6;;;;;;;2.13;67.52246;940.4563;;;;
2020/02/19 07:05:01;;;;;;;13.9;5;;;;;;;2.27;66.85059;940.4494;;;;
2020/02/19 07:07:35;;;;;;;14.7;4.7;;;;;;;2.42;66.64746;940.4905;;;;
2020/02/19 07:09:53;;;;;;;11.4;4;;;;;;;2.6;66.66602;940.4476;;;;
2020/02/19 07:12:20;;;;;;;13.6;4.2;;;;;;;2.56;66.43555;940.5084;;;;
2020/02/19 07:14:51;;;;;;;17.3;8.4;;;;;;;2.27;67.44238;940.472;;;;
2020/02/19 07:17:15;;;;;;;12.4;5.9;;;;;;;2.27;67.42188;940.4305;;;;
2020/02/19 07:19:41;;;;;;;18.5;5.5;;;;;;;2.37;67.02344;940.5346;;;;
2020/02/19 07:22:17;;;;;;;14.5;4.8;;;;;;;2.35;67.48926;940.5769;;;;
2020/02/19 07:24:45;;;;;;;14;5.4;;;;;;;2.55;66.66797;940.4339;;;;
2020/02/19 07:27:17;;;;;;;29.7;7.8;;;;;;;2.53;66.92383;940.5251;;;;
2020/02/19 07:29:58;;;;;;;26.6;9.8;;;;;;;2.72;67.68262;940.5203;;;;
2020/02/19 07:32:34;;;;;;;19.5;5.6;;;;;;;2.85;65.06836;940.6055;;;;
2020/02/19 07:35:04;;;;;;;15.9;4.5;;;;;;;3;65.85352;940.5203;;;;
2020/02/19 07:37:32;;;;;;;12.9;4.3;;;;;;;3.2;63.91992;940.5003;;;;
2020/02/19 07:39:58;;;;;;;25.6;6;;;;;;;3.18;64.02832;940.4319;;;;
2020/02/19 07:42:39;;;;;;;16.2;4.1;;;;;;;3.26;64.82617;940.4125;;;;
2020/02/19 07:45:03;;;;;;;8.9;3.3;;;;;;;3.31;64.41895;940.3658;;;;
2020/02/19 07:47:27;;;;;;;47.4;6.6;;;;;;;3.41;63.18848;940.3361;;;;
2020/02/19 07:51:08;;;;;;;28.6;5.2;;;;;;;3.49;62.66211;940.2104;;;;
2020/02/19 07:53:31;;;;;;;13.3;3.3;;;;;;;3.38;62.8584;940.0924;;;;
2020/02/19 07:55:58;;;;;;;16.1;3.7;;;;;;;3.4;62.47949;940.153;;;;
2020/02/19 07:58:28;;;;;;;8.5;2.6;;;;;;;3.62;61.46777;940.1053;;;;
2020/02/19 08:01:00;;;;;;;27.2;4.2;;;;;;;3.89;60.57324;940.0126;;;;
2020/02/19 08:03:32;;;;;;;11.3;2.9;;;;;;;4.1;58.5;940.0467;;;;
2020/02/19 08:05:59;;;;;;;7.6;2.6;;;;;;;4.3;57.9082;939.9106;;;;
2020/02/19 08:08:29;;;;;;;22.1;3.7;;;;;;;4.5;57.73242;940.0417;;;;
2020/02/19 08:10:58;;;;;;;6;1.8;;;;;;;4.51;56.73047;939.9938;;;;
2020/02/19 08:13:24;;;;;;;6.4;2.4;;;;;;;4.32;54.34277;939.8756;;;;
2020/02/19 08:15:53;;;;;;;3.7;2.1;;;;;;;4.47;55.76953;939.9231;;;;
2020/02/19 08:20:53;;;;;;;17.6;2.7;;;;;;;4.8;53.42383;939.9188;;;;
2020/02/19 08:23:29;;;;;;;14.1;2.9;;;;;;;4.98;54.46094;939.769;;;;
2020/02/19 08:28:24;;;;;;;9.3;2.4;;;;;;;5.31;54.2666;939.7296;;;;
2020/02/19 08:30:55;;;;;;;8.2;2.5;;;;;;;5.42;52.75586;939.6699;;;;
2020/02/19 08:33:23;;;;;;;9.4;2.7;;;;;;;5.57;54.34473;939.5909;;;;
2020/02/19 08:36:33;;;;;;;17.3;7.6;;;;;;;5.68;52.9707;939.4696;;;;
2020/02/19 08:38:54;;;;;;;13.2;2.6;;;;;;;5.89;51.59668;939.5963;;;;
2020/02/19 08:41:22;;;;;;;5.7;2.4;;;;;;;6.16;48.9834;939.4037;;;;
2020/02/19 08:43:54;;;;;;;7.5;2.6;;;;;;;6.34;50.22559;939.3867;;;;
2020/02/19 08:46:20;;;;;;;12.2;2.5;;;;;;;6.64;49.09375;939.176;;;;
2020/02/19 08:48:53;;;;;;;22.5;4.1;;;;;;;7.51;47.45898;939.2026;;;;
2020/02/19 14:58:27;;;;;;;8.6;2.3;;;;;;;4.21;73.19727;943.1333;;;;
2020/02/19 15:00:51;;;;;;;2.1;1.1;;;;;;;3.93;73.88965;942.9719;;;;
2020/02/19 15:03:24;;;;;;;3.8;1.7;;;;;;;4.09;74.53613;943.0429;;;;
2020/02/19 15:05:49;;;;;;;2;1.3;;;;;;;4.11;75.08105;943.1476;;;;
2020/02/19 15:08:13;;;;;;;2;0.8;;;;;;;4.05;74.09082;942.9473;;;;
2020/02/19 15:13:08;;;;;;;2.8;1.3;;;;;;;4.02;75.15332;942.9861;;;;
2020/02/19 15:15:39;;;;;;;1.7;1.2;;;;;;;4.04;75.6748;942.9697;;;;
2020/02/19 15:18:31;;;;;;;2.8;1.7;;;;;;;4.24;75.99219;943.1161;;;;
2020/02/19 15:20:27;;;;;;;19.9;15.7;;;;;;;4.32;75.78125;943.118;;;;
2020/02/19 15:23:05;;;;;;;28.1;24.8;;;;;;;4.35;75.15625;943.1594;;;;
2020/02/19 15:25:31;;;;;;;8.2;6.1;;;;;;;4.35;75.08789;943.1042;;;;
2020/02/19 15:27:56;;;;;;;1.7;0.6;;;;;;;3.97;74.12305;943.1008;;;;
2020/02/19 15:30:27;;;;;;;1.7;1.1;;;;;;;3.76;76.24316;943.2515;;;;
2020/02/19 15:32:51;;;;;;;2.8;1.8;;;;;;;3.66;76.43945;943.1882;;;;
2020/02/19 15:35:12;;;;;;;18.9;15.3;;;;;;;3.89;77.59277;943.1902;;;;
2020/02/19 15:37:48;;;;;;;7.9;6.6;;;;;;;4.12;76.87109;943.2357;;;;
2020/02/19 15:40:05;;;;;;;3.3;2.2;;;;;;;4.24;75.48535;943.2974;;;;
2020/02/19 15:42:54;;;;;;;2.8;1.5;;;;;;;4.35;74.62695;943.2839;;;;
2020/02/19 15:44:58;;;;;;;2.1;1.4;;;;;;;4.25;74.72168;943.3948;;;;
2020/02/19 15:47:33;;;;;;;3.2;2.1;;;;;;;4.38;75.55469;943.4041;;;;
2020/02/19 15:50:04;;;;;;;2.3;1.4;;;;;;;4.41;72.69043;943.4183;;;;
2020/02/19 15:55:00;;;;;;;4.3;3;;;;;;;4.26;74.84766;943.47;;;;
2020/02/19 15:57:34;;;;;;;3.4;2.3;;;;;;;4.09;73.91699;943.4384;;;;
2020/02/19 15:59:59;;;;;;;3.8;2.4;;;;;;;4.02;75.01855;943.451;;;;
2020/02/19 16:02:25;;;;;;;3.8;2.1;;;;;;;4.16;76.39551;943.4626;;;;
2020/02/19 16:04:51;;;;;;;4;2.6;;;;;;;4.22;74.31055;943.4724;;;;
2020/02/19 16:07:24;;;;;;;4.9;2.8;;;;;;;4.05;76.6123;943.4423;;;;
2020/02/19 16:09:58;;;;;;;5.7;2.3;;;;;;;3.84;76.70605;943.4202;;;;
2020/02/19 16:12:24;;;;;;;4.7;2.6;;;;;;;3.86;77.10449;943.474;;;;
2020/02/19 16:14:52;;;;;;;3.2;2.2;;;;;;;4;75.86914;943.5066;;;;
2020/02/19 16:17:15;;;;;;;4.7;2.6;;;;;;;4.19;75.27539;943.5553;;;;
2020/02/19 16:19:40;;;;;;;3.8;2.5;;;;;;;4.32;74.375;943.6153;;;;
2020/02/19 16:22:10;;;;;;;7.3;4.7;;;;;;;4.36;75.37109;943.6145;;;;
2020/02/19 16:24:36;;;;;;;6.3;5.7;;;;;;;4.3;77.63281;943.6931;;;;
2020/02/19 16:27:02;;;;;;;7.3;6.6;;;;;;;4.32;78.34668;943.6365;;;;
2020/02/19 16:29:31;;;;;;;12.2;11;;;;;;;4.2;78.57129;943.662;;;;
2020/02/19 16:32:14;;;;;;;4.1;2.7;;;;;;;4.07;79.67285;943.7534;;;;
2020/02/19 16:34:43;;;;;;;5.6;4.2;;;;;;;3.77;79.90918;943.6511;;;;
2020/02/19 16:37:09;;;;;;;5.6;4.6;;;;;;;3.83;78.60547;943.6579;;;;
2020/02/19 16:44:33;;;;;;;7.6;6.7;;;;;;;3.98;78.0498;943.804;;;;
2020/02/19 16:46:59;;;;;;;6.4;5.3;;;;;;;4.03;78.8125;943.8607;;;;
2020/02/19 16:49:28;;;;;;;8.3;6.7;;;;;;;3.93;79.19629;943.8574;;;;
2020/02/19 16:51:50;;;;;;;7.3;5.7;;;;;;;3.95;79.37109;943.8641;;;;
2020/02/19 16:54:16;;;;;;;6.7;5.4;;;;;;;3.93;79.35547;943.8766;;;;
2020/02/19 16:56:43;;;;;;;5.8;4.8;;;;;;;3.96;79.46094;943.7802;;;;
2020/02/19 16:59:36;;;;;;;7.1;5.7;;;;;;;4.03;78.93359;943.8486;;;;
2020/02/19 17:01:31;;;;;;;7.1;4.5;;;;;;;4.16;79.17188;943.8942;;;;
2020/02/19 17:03:59;;;;;;;3.7;2.2;;;;;;;4.08;79.45117;943.8582;;;;
2020/02/19 17:06:27;;;;;;;2.7;2;;;;;;;3.99;80.02832;943.9028;;;;
2020/02/19 17:08:52;;;;;;;3.1;2.3;;;;;;;4.03;79.98242;943.8686;;;;
2020/02/19 17:11:23;;;;;;;4.9;2.5;;;;;;;3.97;79.94629;943.8878;;;;
2020/02/19 17:13:49;;;;;;;4.9;2.7;;;;;;;3.79;80.40723;943.8811;;;;
2020/02/19 17:16:39;;;;;;;6.2;3.4;;;;;;;3.78;80.93359;943.9263;;;;
2020/02/19 17:19:06;;;;;;;3.3;2.1;;;;;;;3.7;81.08887;943.8631;;;;
2020/02/19 17:21:38;;;;;;;9.1;3.7;;;;;;;3.68;80.52148;943.7761;;;;
2020/02/19 17:24:05;;;;;;;16.4;14.8;;;;;;;3.72;80.39551;943.9719;;;;
2020/02/19 17:26:31;;;;;;;8.2;7.4;;;;;;;3.74;80.48828;943.972;;;;
2020/02/19 17:28:57;;;;;;;4.8;3.8;;;;;;;3.75;79.86035;944.0503;;;;
2020/02/19 17:31:23;;;;;;;14.8;11.6;;;;;;;3.6;80.50781;944.0646;;;;
2020/02/19 17:33:49;;;;;;;18.9;14;;;;;;;3.61;81.01367;944.037;;;;
2020/02/19 17:36:27;;;;;;;55;38.6;;;;;;;3.71;81.03223;944.1872;;;;
2020/02/19 17:38:48;;;;;;;38.1;30;;;;;;;3.49;81.44238;944.2173;;;;
2020/02/19 17:41:21;;;;;;;19.5;16.1;;;;;;;3.35;82.32227;944.2805;;;;
2020/02/19 17:43:44;;;;;;;6.2;3.8;;;;;;;3.42;82.19141;944.4084;;;;
2020/02/19 17:46:15;;;;;;;5.1;2.7;;;;;;;3.45;82.55469;944.4615;;;;
2020/02/19 17:48:39;;;;;;;5.8;3.1;;;;;;;3.52;82.54785;944.5847;;;;
2020/02/19 17:51:33;;;;;;;6.6;3.6;;;;;;;3.55;82.51953;944.6292;;;;
2020/02/19 17:53:48;;;;;;;8.6;6;;;;;;;3.54;81.84375;944.5525;;;;
2020/02/19 17:56:20;;;;;;;8.9;5.8;;;;;;;3.52;82.05371;944.6588;;;;
2020/02/19 17:58:47;;;;;;;10.5;7.3;;;;;;;3.56;82.28516;944.7888;;;;
2020/02/19 18:01:11;;;;;;;11.1;7.8;;;;;;;3.71;81.61621;944.8203;;;;
2020/02/19 18:03:46;;;;;;;13.3;9.1;;;;;;;3.75;81.64746;944.871;;;;
2020/02/19 18:06:13;;;;;;;15.4;10.1;;;;;;;3.98;80.65625;944.9201;;;;
2020/02/19 18:08:39;;;;;;;14.3;10;;;;;;;3.87;78.29785;944.8768;;;;
2020/02/19 18:11:36;;;;;;;9.7;6.3;;;;;;;3.64;78.42285;944.9447;;;;
2020/02/19 18:14:05;;;;;;;9.3;4.8;;;;;;;3.57;78.65723;944.9417;;;;
2020/02/19 18:16:35;;;;;;;7;4.4;;;;;;;3.49;79.71191;945.066;;;;
2020/02/19 18:19:01;;;;;;;9;5.8;;;;;;;3.3;80.62891;945.0041;;;;
2020/02/19 18:21:28;;;;;;;8.9;5.7;;;;;;;2.97;82.49707;945.0301;;;;
2020/02/19 18:23:56;;;;;;;8.1;5;;;;;;;2.91;83.9209;945.1024;;;;
2020/02/19 18:26:23;;;;;;;6.7;4.3;;;;;;;2.89;84.33203;945.1889;;;;
2020/02/19 18:28:50;;;;;;;9.7;6;;;;;;;2.95;84.76953;945.1106;;;;
2020/02/19 18:31:17;;;;;;;7;5.1;;;;;;;2.59;85.97461;945.1467;;;;
2020/02/19 18:36:10;;;;;;;9.2;5.2;;;;;;;2.41;88.21191;945.2662;;;;
2020/02/19 18:39:39;;;;;;;6.8;3.8;;;;;;;2.33;88.46582;945.2558;;;;
2020/02/19 18:42:07;;;;;;;9.5;4.5;;;;;;;2.43;88.43066;945.2776;;;;
2020/02/19 18:44:44;;;;;;;8.1;5.4;;;;;;;2.56;87.87402;945.259;;;;
2020/02/19 18:47:08;;;;;;;11.2;5.8;;;;;;;2.55;87.93945;945.298;;;;
2020/02/19 18:49:28;;;;;;;9.8;5.7;;;;;;;2.65;87.94922;945.3243;;;;
2020/02/19 18:51:59;;;;;;;11.1;7;;;;;;;2.65;87.50977;945.3856;;;;
2020/02/19 18:54:25;;;;;;;14.6;7.5;;;;;;;2.78;87.12305;945.4495;;;;
2020/02/19 18:56:58;;;;;;;12.1;7.8;;;;;;;2.88;86.3252;945.4564;;;;
2020/02/19 18:59:29;;;;;;;11.7;7;;;;;;;2.78;86.9209;945.4976;;;;
2020/02/19 19:01:52;;;;;;;12.2;8.2;;;;;;;2.82;86.50488;945.4977;;;;
2020/02/19 19:04:21;;;;;;;10;6.5;;;;;;;2.9;86.67578;945.4684;;;;
2020/02/19 19:06:48;;;;;;;10.4;7.5;;;;;;;2.99;86.28125;945.5594;;;;
2020/02/19 19:09:19;;;;;;;29.6;21.3;;;;;;;3.14;85.81738;945.5443;;;;
2020/02/19 19:11:47;;;;;;;13.7;9.8;;;;;;;3.15;85.70605;945.4953;;;;
2020/02/19 19:14:15;;;;;;;9.1;6.1;;;;;;;3.25;85.20996;945.5948;;;;
2020/02/19 19:16:44;;;;;;;7.2;5.4;;;;;;;3.22;84.94629;945.6348;;;;
2020/02/19 19:19:08;;;;;;;8.5;6.8;;;;;;;3.2;85.20117;945.6306;;;;
2020/02/19 19:21:35;;;;;;;8.9;7;;;;;;;3.27;84.83398;945.6243;;;;
2020/02/19 19:23:58;;;;;;;13.7;10.3;;;;;;;3.28;84.91211;945.6121;;;;
2020/02/19 19:26:42;;;;;;;21.2;16.2;;;;;;;3.42;84.15527;945.6535;;;;
2020/02/19 19:29:34;;;;;;;28.7;22.6;;;;;;;;;;;;;
2020/02/19 19:31:59;;;;;;;22.6;18.2;;;;;;;;;;;;;
2020/02/19 19:34:26;;;;;;;12.7;10.4;;;;;;;;;;;;;
2020/02/19 20:47:25;;;;;;;23.7;19;;;;;;;;;;;;;
2020/02/19 20:49:50;;;;;;;10.3;7.7;;;;;;;;;;;;;
2020/02/19 20:52:18;;;;;;;9.4;7.4;;;;;;;;;;;;;
2020/02/19 20:54:41;;;;;;;9.5;6.8;;;;;;;;;;;;;
2020/02/19 20:57:07;;;;;;;7.3;5.9;;;;;;;;;;;;;
2020/02/19 20:59:36;;;;;;;7.7;5.9;;;;;;;;;;;;;
2020/02/19 21:02:03;;;;;;;10.2;8.6;;;;;;;;;;;;;
2020/02/19 21:04:25;;;;;;;9;7.3;;;;;;;;;;;;;
2020/02/19 21:06:53;;;;;;;10.9;7.7;;;;;;;;;;;;;
2020/02/19 21:09:38;;;;;;;19;15.2;;;;;;;;;;;;;
2020/02/19 21:12:03;;;;;;;12.9;10.3;;;;;;;;;;;;;
2020/02/19 21:14:32;;;;;;;16.1;11.7;;;;;;;;;;;;;
2020/02/19 21:16:54;;;;;;;15.4;12.8;;;;;;;;;;;;;
2020/02/19 21:19:21;;;;;;;15.9;11.4;;;;;;;;;;;;;
2020/02/19 21:21:45;;;;;;;12.4;9;;;;;;;;;;;;;
2020/02/19 21:24:13;;;;;;;14.9;11.6;;;;;;;;;;;;;
2020/02/19 21:26:39;;;;;;;14.3;10.3;;;;;;;;;;;;;
2020/02/19 21:29:20;;;;;;;11.9;8.9;;;;;;;;;;;;;
2020/02/19 21:31:33;;;;;;;12.7;8.9;;;;;;;;;;;;;
2020/02/19 21:33:56;;;;;;;11.4;8.6;;;;;;;;;;;;;
2020/02/19 21:36:22;;;;;;;12.5;9.2;;;;;;;;;;;;;
2020/02/19 21:38:45;;;;;;;10.2;7.9;;;;;;;;;;;;;
2020/02/19 21:41:10;;;;;;;9.5;7.4;;;;;;;;;;;;;
2020/02/19 21:43:37;;;;;;;8.9;6.6;;;;;;;;;;;;;
2020/02/19 21:46:02;;;;;;;8.7;6.7;;;;;;;;;;;;;
2020/02/19 21:48:27;;;;;;;11.6;7.9;;;;;;;;;;;;;
2020/02/19 21:50:51;;;;;;;12;9;;;;;;;;;;;;;
2020/02/19 21:53:20;;;;;;;10.9;7.5;;;;;;;;;;;;;
2020/02/19 21:55:56;;;;;;;9.4;6.5;;;;;;;;;;;;;
2020/02/19 21:58:08;;;;;;;9.9;6.9;;;;;;;;;;;;;
2020/02/19 22:00:34;;;;;;;9.7;7.2;;;;;;;;;;;;;
2020/02/19 22:02:59;;;;;;;10.8;7.5;;;;;;;;;;;;;
2020/02/19 22:05:25;;;;;;;11.6;8.6;;;;;;;;;;;;;
2020/02/19 22:07:52;;;;;;;9.7;8;;;;;;;;;;;;;
2020/02/19 22:10:19;;;;;;;11.7;7.3;;;;;;;;;;;;;
2020/02/19 22:12:45;;;;;;;9.6;7.5;;;;;;;;;;;;;
2020/02/19 22:15:09;;;;;;;9;6.7;;;;;;;;;;;;;
2020/02/19 22:17:41;;;;;;;8.4;5.8;;;;;;;;;;;;;
2020/02/19 22:20:43;;;;;;;7.5;4.5;;;;;;;;;;;;;
2020/02/19 22:25:33;;;;;;;5.9;2.6;;;;;;;;;;;;;
2020/02/19 22:27:55;;;;;;;4.6;2.7;;;;;;;;;;;;;
2020/02/19 22:30:22;;;;;;;4.6;3.5;;;;;;;;;;;;;
2020/02/19 22:32:48;;;;;;;5.8;2.9;;;;;;;;;;;;;
2020/02/19 22:35:19;;;;;;;4.2;3;;;;;;;;;;;;;
2020/02/19 22:37:46;;;;;;;5.8;3.1;;;;;;;;;;;;;
2020/02/19 22:40:05;;;;;;;10.7;9.6;;;;;;;;;;;;;
2020/02/19 22:42:29;;;;;;;10.2;6;;;;;;;;;;;;;
2020/02/19 22:44:54;;;;;;;8.8;5.7;;;;;;;;;;;;;
2020/02/19 22:47:23;;;;;;;11.9;7.2;;;;;;;;;;;;;
2020/02/19 22:49:48;;;;;;;12.7;8.5;;;;;;;;;;;;;
2020/02/19 22:52:13;;;;;;;13.5;9.2;;;;;;;;;;;;;
2020/02/19 22:54:44;;;;;;;13.4;10.3;;;;;;;;;;;;;
2020/02/19 22:57:04;;;;;;;17.2;13.6;;;;;;;;;;;;;
2020/02/19 22:59:31;;;;;;;15.3;11.8;;;;;;;;;;;;;
2020/02/19 23:01:55;;;;;;;14;10.1;;;;;;;;;;;;;
2020/02/19 23:04:22;;;;;;;14.7;10.7;;;;;;;;;;;;;
2020/02/19 23:06:50;;;;;;;15.7;11.5;;;;;;;;;;;;;
2020/02/19 23:09:12;;;;;;;15.3;10.9;;;;;;;;;;;;;
2020/02/19 23:19:41;;;;;;;16.6;10.4;;;;;;;;;;;;;
2020/02/19 23:21:46;;;;;;;12;8.4;;;;;;;;;;;;;
2020/02/19 23:24:11;;;;;;;11.1;8.4;;;;;;;;;;;;;
2020/02/19 23:26:43;;;;;;;11.7;8.2;;;;;;;;;;;;;
2020/02/19 23:29:06;;;;;;;10.9;7.6;;;;;;;;;;;;;
2020/02/19 23:31:32;;;;;;;10.9;7.2;;;;;;;;;;;;;
2020/02/19 23:34:03;;;;;;;7.8;5.8;;;;;;;;;;;;;
2020/02/19 23:36:22;;;;;;;7.5;4.3;;;;;;;;;;;;;
2020/02/19 23:38:49;;;;;;;7.2;4.2;;;;;;;;;;;;;
2020/02/19 23:41:20;;;;;;;6.3;4.1;;;;;;;;;;;;;
2020/02/19 23:43:41;;;;;;;5.1;2.2;;;;;;;;;;;;;
2020/02/19 23:46:07;;;;;;;4.8;1.9;;;;;;;;;;;;;
2020/02/19 23:48:36;;;;;;;4.1;2.2;;;;;;;;;;;;;
2020/02/19 23:50:58;;;;;;;3.5;2.1;;;;;;;;;;;;;